Lady Washington — WAA2820 — position and weather

sailwx.info

Track history (hours):
 
Tides and Currents Weather Stations Pressure Air Temp Water Temp Dewpoint Dewpoint Depression Visibility Wind Speed Wind Dir Waves Ship Positions

Lady Washington (United States)

Ship's website: http://www.historicalseaport.org/LadyWashington.htm

Owner: GRAYS HARBOR HISTORICAL SEAPORT AUTHORIT, ABERDEEN, WA. More information available from US FCC via Universal Licensing System and Coast Guard Vessel Documentation Center.

Last reported at 2019-Jun-14 10:53 UTC. Time now 2019-Jun-15 22:36 UTC.
Position N 47°16' W 122°26'.

Length 34 m.

Type: Sailing vessel. MMSI: 366945360.

Date/timePositionNaut miles runAvg speedWind from/ knotsBaromVisibWave heightAir tempDewpointWater temp
2019-Jun-14 10:53N 47°16' W 122°26'0 0.0
2019-Jun-13 22:57N 47°16' W 122°26'0 0.0
2019-Jun-13 06:49N 47°16' W 122°26'0 0.0
2019-Jun-13 06:28N 47°16' W 122°26'3 1.3
2019-Jun-13 04:25N 47°18' W 122°28'2 5.6
2019-Jun-13 04:00N 47°20' W 122°27'3 6.1
2019-Jun-13 03:30N 47°22' W 122°24'3 4.7
2019-Jun-13 02:58N 47°25' W 122°23'4 6.3
2019-Jun-13 02:21N 47°28' W 122°26'2 6.2
2019-Jun-13 01:59N 47°30' W 122°27'3 6.5
2019-Jun-13 01:29N 47°33' W 122°28'8 6.5
2019-Jun-13 00:19N 47°41' W 122°29'2 6.4
2019-Jun-12 23:59N 47°43' W 122°29'3 5.9
2019-Jun-12 23:30N 47°46' W 122°28'4 6.1
2019-Jun-12 22:47N 47°50' W 122°29'2 5.6
2019-Jun-12 22:30N 47°52' W 122°30'  
Track history (hours):
 
Tides and Currents Weather Stations Pressure Air Temp Water Temp Dewpoint Dewpoint Depression Visibility Wind Speed Wind Dir Waves Ship Positions

Lady Washington (United States)

Ship's website: http://www.historicalseaport.org/LadyWashington.htm

Owner: GRAYS HARBOR HISTORICAL SEAPORT AUTHORIT, ABERDEEN, WA. More information available from US FCC via Universal Licensing System and Coast Guard Vessel Documentation Center.

Last reported at 2019-Jun-14 10:53 UTC. Time now 2019-Jun-15 22:36 UTC.
Position N 47°16' W 122°26'.

Length 34 m.

Type: Sailing vessel. MMSI: 366945360.

Date/timePositionNaut miles runAvg speedWind from/ knotsBaromVisibWave heightAir tempDewpointWater temp
2019-Jun-14 10:53N 47°16' W 122°26'0 0.0
2019-Jun-13 22:57N 47°16' W 122°26'0 0.0
2019-Jun-13 06:49N 47°16' W 122°26'0 0.0
2019-Jun-13 06:28N 47°16' W 122°26'3 1.3
2019-Jun-13 04:25N 47°18' W 122°28'2 5.6
2019-Jun-13 04:00N 47°20' W 122°27'3 6.1
2019-Jun-13 03:30N 47°22' W 122°24'3 4.7
2019-Jun-13 02:58N 47°25' W 122°23'4 6.3
2019-Jun-13 02:21N 47°28' W 122°26'2 6.2
2019-Jun-13 01:59N 47°30' W 122°27'3 6.5
2019-Jun-13 01:29N 47°33' W 122°28'8 6.5
2019-Jun-13 00:19N 47°41' W 122°29'2 6.4
2019-Jun-12 23:59N 47°43' W 122°29'3 5.9
2019-Jun-12 23:30N 47°46' W 122°28'4 6.1
2019-Jun-12 22:47N 47°50' W 122°29'2 5.6
2019-Jun-12 22:30N 47°52' W 122°30'  

Dump ship's entire track history